createdAt,value
2022-12-18T00:00:09.615Z,98810.00
2022-12-18T00:00:19.615Z,98812.00
2022-12-18T00:00:29.623Z,98812.00
2022-12-18T00:00:39.627Z,98813.00
2022-12-18T00:00:49.747Z,98812.00
2022-12-18T00:00:59.748Z,98810.00
2022-12-18T00:01:09.871Z,98808.00
2022-12-18T00:01:19.979Z,98812.00
2022-12-18T00:01:30.028Z,98812.00
2022-12-18T00:01:40.158Z,98813.00
2022-12-18T00:01:50.143Z,98812.00
2022-12-18T00:02:00.323Z,98812.00
2022-12-18T00:02:10.476Z,98812.00
2022-12-18T00:02:20.480Z,98810.00
2022-12-18T00:02:30.624Z,98812.00
2022-12-18T00:02:40.933Z,98813.00
2022-12-18T00:02:51.116Z,98810.00
2022-12-18T00:03:01.259Z,98812.00
2022-12-18T00:03:11.209Z,98813.00
2022-12-18T00:03:21.211Z,98813.00
2022-12-18T00:03:31.274Z,98812.00
2022-12-18T00:03:41.799Z,98810.00
2022-12-18T00:03:51.848Z,98813.00
2022-12-18T00:04:01.897Z,98810.00
2022-12-18T00:04:11.915Z,98810.00
2022-12-18T00:04:22.260Z,98810.00
2022-12-18T00:04:32.162Z,98810.00
2022-12-18T00:04:42.169Z,98812.00
2022-12-18T00:04:52.167Z,98812.00
2022-12-18T00:05:02.181Z,98813.00
2022-12-18T00:05:12.302Z,98813.00
2022-12-18T00:05:22.299Z,98813.00
2022-12-18T00:05:32.428Z,98812.00
2022-12-18T00:05:42.451Z,98813.00
2022-12-18T00:05:52.547Z,98812.00
2022-12-18T00:06:02.566Z,98812.00
2022-12-18T00:06:12.584Z,98810.00
2022-12-18T00:06:22.581Z,98812.00
2022-12-18T00:06:32.608Z,98815.00
2022-12-18T00:06:42.616Z,98813.00
2022-12-18T00:06:52.679Z,98812.00
2022-12-18T00:07:02.690Z,98813.00
2022-12-18T00:07:12.694Z,98813.00
2022-12-18T00:07:22.694Z,98813.00
2022-12-18T00:07:32.697Z,98817.00
2022-12-18T00:07:42.699Z,98815.00
2022-12-18T00:07:52.723Z,98815.00
2022-12-18T00:08:02.722Z,98817.00
2022-12-18T00:08:12.849Z,98815.00
2022-12-18T00:08:22.846Z,98815.00
2022-12-18T00:08:32.971Z,98817.00
2022-12-18T00:08:42.976Z,98815.00
2022-12-18T00:08:53.093Z,98819.00
2022-12-18T00:09:03.095Z,98817.00
2022-12-18T00:09:13.222Z,98817.00
2022-12-18T00:09:24.047Z,98815.00
2022-12-18T00:09:40.173Z,98817.00
2022-12-18T00:09:43.275Z,98815.00
2022-12-18T00:09:53.393Z,98813.00
2022-12-18T00:10:03.406Z,98813.00
2022-12-18T00:10:15.348Z,98815.00
2022-12-18T00:10:23.503Z,98813.00
2022-12-18T00:10:33.618Z,98813.00
2022-12-18T00:10:43.621Z,98813.00
2022-12-18T00:10:53.750Z,98813.00
2022-12-18T00:11:03.754Z,98813.00
2022-12-18T00:11:13.808Z,98813.00
2022-12-18T00:11:23.824Z,98815.00
2022-12-18T00:11:33.933Z,98813.00
2022-12-18T00:11:44.067Z,98813.00
2022-12-18T00:11:54.196Z,98812.00
2022-12-18T00:12:24.214Z,98813.00
2022-12-18T00:12:34.461Z,98813.00
2022-12-18T00:12:44.475Z,98812.00
2022-12-18T00:12:54.472Z,98813.00
2022-12-18T00:13:08.310Z,98813.00
2022-12-18T00:13:14.627Z,98813.00
2022-12-18T00:13:24.637Z,98810.00
2022-12-18T00:13:34.906Z,98813.00
2022-12-18T00:13:44.696Z,98810.00
2022-12-18T00:13:54.815Z,98812.00
2022-12-18T00:14:04.815Z,98812.00
2022-12-18T00:14:14.840Z,98812.00
2022-12-18T00:14:24.849Z,98810.00
2022-12-18T00:14:35.225Z,98810.00
2022-12-18T00:14:45.254Z,98812.00
2022-12-18T00:14:55.232Z,98812.00
2022-12-18T00:15:05.231Z,98813.00
2022-12-18T00:15:15.353Z,98812.00
2022-12-18T00:15:25.353Z,98813.00
2022-12-18T00:15:35.379Z,98812.00
2022-12-18T00:15:45.408Z,98813.00
2022-12-18T00:15:56.559Z,98813.00
2022-12-18T00:16:05.466Z,98813.00
2022-12-18T00:16:15.680Z,98812.00
2022-12-18T00:16:25.747Z,98813.00
2022-12-18T00:16:35.865Z,98815.00
2022-12-18T00:16:46.139Z,98815.00
2022-12-18T00:16:56.155Z,98815.00
2022-12-18T00:17:06.149Z,98813.00
2022-12-18T00:17:16.524Z,98813.00
2022-12-18T00:17:26.535Z,98813.00
2022-12-18T00:17:36.553Z,98815.00
2022-12-18T00:17:46.559Z,98817.00
2022-12-18T00:17:56.566Z,98815.00
2022-12-18T00:18:06.578Z,98817.00
2022-12-18T00:18:20.395Z,98821.00
2022-12-18T00:18:26.687Z,98819.00
2022-12-18T00:18:37.165Z,98817.00
2022-12-18T00:18:46.799Z,98817.00
2022-12-18T00:18:56.805Z,98819.00
2022-12-18T00:19:06.810Z,98817.00
2022-12-18T00:19:16.814Z,98817.00
2022-12-18T00:19:26.813Z,98819.00
2022-12-18T00:19:37.203Z,98817.00
2022-12-18T00:19:47.209Z,98819.00
2022-12-18T00:19:57.327Z,98819.00
2022-12-18T00:20:07.583Z,98817.00
2022-12-18T00:20:17.706Z,98819.00
2022-12-18T00:20:27.703Z,98817.00
2022-12-18T00:20:37.972Z,98817.00
2022-12-18T00:20:47.998Z,98815.00
2022-12-18T00:20:57.978Z,98819.00
2022-12-18T00:21:07.986Z,98817.00
2022-12-18T00:21:17.998Z,98817.00
2022-12-18T00:21:28.006Z,98815.00
2022-12-18T00:21:37.999Z,98819.00
2022-12-18T00:21:48.007Z,98821.00
2022-12-18T00:21:58.010Z,98819.00
2022-12-18T00:22:08.010Z,98819.00
2022-12-18T00:22:18.039Z,98817.00
2022-12-18T00:22:28.054Z,98817.00
2022-12-18T00:22:38.052Z,98819.00
2022-12-18T00:22:48.045Z,98821.00
2022-12-18T00:22:58.171Z,98819.00
2022-12-18T00:23:08.169Z,98819.00
2022-12-18T00:23:18.178Z,98817.00
2022-12-18T00:23:28.447Z,98817.00
2022-12-18T00:23:38.900Z,98817.00
2022-12-18T00:23:48.469Z,98819.00
2022-12-18T00:23:58.856Z,98821.00
2022-12-18T00:24:08.866Z,98821.00
2022-12-18T00:24:18.874Z,98817.00
2022-12-18T00:24:28.910Z,98815.00
2022-12-18T00:24:38.921Z,98815.00
2022-12-18T00:24:48.919Z,98817.00
2022-12-18T00:24:59.040Z,98817.00
2022-12-18T00:25:09.047Z,98819.00
2022-12-18T00:25:19.053Z,98815.00
2022-12-18T00:25:29.053Z,98813.00
2022-12-18T00:25:39.314Z,98813.00
2022-12-18T00:25:49.324Z,98815.00
2022-12-18T00:25:59.448Z,98813.00
2022-12-18T00:26:09.706Z,98812.00
2022-12-18T00:26:19.828Z,98810.00
2022-12-18T00:26:29.825Z,98810.00
2022-12-18T00:26:40.080Z,98813.00
2022-12-18T00:26:50.101Z,98812.00
2022-12-18T00:27:00.093Z,98812.00
2022-12-18T00:27:10.108Z,98812.00
2022-12-18T00:27:20.136Z,98808.00
2022-12-18T00:27:30.140Z,98810.00
2022-12-18T00:27:40.152Z,98808.00
2022-12-18T00:27:50.161Z,98808.00
2022-12-18T00:28:00.193Z,98808.00
2022-12-18T00:28:10.242Z,98806.00
2022-12-18T00:28:20.235Z,98806.00
2022-12-18T00:28:30.243Z,98806.00
2022-12-18T00:28:40.250Z,98806.00
2022-12-18T00:28:50.249Z,98806.00
2022-12-18T00:29:00.376Z,98810.00
2022-12-18T00:29:10.380Z,98806.00
2022-12-18T00:29:20.380Z,98804.00
2022-12-18T00:29:30.637Z,98804.00
2022-12-18T00:29:40.641Z,98804.00
2022-12-18T00:29:50.643Z,98806.00
2022-12-18T00:30:00.645Z,98804.00
2022-12-18T00:30:10.645Z,98804.00
2022-12-18T00:30:20.734Z,98802.00
2022-12-18T00:30:30.755Z,98804.00
2022-12-18T00:30:40.762Z,98802.00
2022-12-18T00:30:50.762Z,98802.00
2022-12-18T00:31:00.885Z,98804.00
2022-12-18T00:31:11.219Z,98804.00
2022-12-18T00:31:21.379Z,98804.00
2022-12-18T00:31:31.316Z,98800.00
2022-12-18T00:31:41.401Z,98804.00
2022-12-18T00:31:51.472Z,98808.00
2022-12-18T00:32:01.599Z,98808.00
2022-12-18T00:32:11.474Z,98806.00
2022-12-18T00:32:21.608Z,98808.00
2022-12-18T00:32:31.616Z,98808.00
2022-12-18T00:32:41.610Z,98810.00
2022-12-18T00:32:51.883Z,98810.00
2022-12-18T00:33:01.889Z,98808.00
2022-12-18T00:33:11.899Z,98808.00
2022-12-18T00:33:21.910Z,98808.00
2022-12-18T00:33:31.925Z,98808.00
2022-12-18T00:33:42.235Z,98808.00
2022-12-18T00:33:55.313Z,98812.00
2022-12-18T00:34:02.109Z,98810.00
2022-12-18T00:34:12.234Z,98812.00
2022-12-18T00:34:22.245Z,98812.00
2022-12-18T00:34:32.505Z,98810.00
2022-12-18T00:34:42.502Z,98812.00
2022-12-18T00:34:52.632Z,98813.00
2022-12-18T00:35:02.890Z,98813.00
2022-12-18T00:35:13.026Z,98813.00
2022-12-18T00:35:23.034Z,98813.00
2022-12-18T00:35:33.289Z,98812.00
2022-12-18T00:35:43.336Z,98812.00
2022-12-18T00:35:53.368Z,98812.00
2022-12-18T00:36:03.368Z,98812.00
2022-12-18T00:36:13.377Z,98812.00
2022-12-18T00:36:23.389Z,98812.00
2022-12-18T00:36:33.385Z,98812.00
2022-12-18T00:36:43.386Z,98813.00
2022-12-18T00:36:53.518Z,98812.00
2022-12-18T00:37:03.529Z,98812.00
2022-12-18T00:37:18.363Z,98813.00
2022-12-18T00:37:23.834Z,98815.00
2022-12-18T00:37:33.829Z,98812.00
2022-12-18T00:37:43.839Z,98813.00
2022-12-18T00:37:53.837Z,98815.00
2022-12-18T00:38:03.849Z,98812.00
2022-12-18T00:38:13.997Z,98810.00
2022-12-18T00:38:24.024Z,98813.00
2022-12-18T00:38:34.024Z,98813.00
2022-12-18T00:38:44.033Z,98813.00
2022-12-18T00:38:54.035Z,98812.00
2022-12-18T00:39:04.051Z,98812.00
2022-12-18T00:39:14.055Z,98812.00
2022-12-18T00:39:24.069Z,98812.00
2022-12-18T00:39:34.076Z,98812.00
2022-12-18T00:39:44.091Z,98813.00
2022-12-18T00:39:54.095Z,98813.00
2022-12-18T00:40:04.108Z,98813.00
2022-12-18T00:40:14.118Z,98813.00
2022-12-18T00:40:24.127Z,98812.00
2022-12-18T00:40:34.138Z,98812.00
2022-12-18T00:40:44.156Z,98810.00
2022-12-18T00:40:54.153Z,98810.00
2022-12-18T00:41:04.173Z,98806.00
2022-12-18T00:41:14.175Z,98810.00
2022-12-18T00:41:24.197Z,98808.00
2022-12-18T00:41:34.212Z,98806.00
2022-12-18T00:41:44.226Z,98808.00
2022-12-18T00:41:54.222Z,98808.00
2022-12-18T00:42:04.235Z,98810.00
2022-12-18T00:42:14.235Z,98810.00
2022-12-18T00:42:24.255Z,98810.00
2022-12-18T00:42:34.386Z,98808.00
2022-12-18T00:42:44.403Z,98810.00
2022-12-18T00:42:54.415Z,98812.00
2022-12-18T00:43:04.416Z,98810.00
2022-12-18T00:43:14.430Z,98810.00
2022-12-18T00:43:24.685Z,98808.00
2022-12-18T00:43:34.985Z,98810.00
2022-12-18T00:43:44.922Z,98810.00
2022-12-18T00:43:55.058Z,98808.00
2022-12-18T00:44:05.079Z,98808.00
2022-12-18T00:44:15.085Z,98808.00
2022-12-18T00:44:25.096Z,98808.00
2022-12-18T00:44:35.249Z,98808.00
2022-12-18T00:44:45.262Z,98808.00
2022-12-18T00:44:55.265Z,98806.00
2022-12-18T00:45:10.666Z,98806.00
2022-12-18T00:45:15.287Z,98808.00
2022-12-18T00:45:25.343Z,98810.00
2022-12-18T00:45:35.432Z,98808.00
2022-12-18T00:45:45.469Z,98808.00
2022-12-18T00:45:55.560Z,98812.00
2022-12-18T00:46:05.646Z,98808.00
2022-12-18T00:46:15.636Z,98810.00
2022-12-18T00:46:25.646Z,98808.00
2022-12-18T00:46:35.670Z,98810.00
2022-12-18T00:46:45.699Z,98810.00
2022-12-18T00:46:55.713Z,98810.00
2022-12-18T00:47:05.719Z,98810.00
2022-12-18T00:47:15.740Z,98810.00
2022-12-18T00:47:25.740Z,98810.00
2022-12-18T00:47:35.756Z,98810.00
2022-12-18T00:47:45.783Z,98810.00
2022-12-18T00:47:55.802Z,98812.00
2022-12-18T00:48:05.803Z,98812.00
2022-12-18T00:48:15.805Z,98812.00
2022-12-18T00:48:25.806Z,98813.00
2022-12-18T00:48:35.927Z,98813.00
2022-12-18T00:48:45.931Z,98815.00
2022-12-18T00:48:56.195Z,98813.00
2022-12-18T00:49:06.213Z,98815.00
2022-12-18T00:49:16.213Z,98817.00
2022-12-18T00:49:26.221Z,98812.00
2022-12-18T00:49:36.239Z,98812.00
2022-12-18T00:49:46.237Z,98812.00
2022-12-18T00:49:56.250Z,98815.00
2022-12-18T00:50:06.263Z,98815.00
2022-12-18T00:50:16.268Z,98817.00
2022-12-18T00:50:26.285Z,98815.00
2022-12-18T00:50:36.293Z,98813.00
2022-12-18T00:50:46.304Z,98815.00
2022-12-18T00:50:56.338Z,98815.00
2022-12-18T00:51:06.315Z,98815.00
2022-12-18T00:51:16.445Z,98815.00
2022-12-18T00:51:26.446Z,98817.00
2022-12-18T00:51:36.472Z,98817.00
2022-12-18T00:51:46.732Z,98817.00
2022-12-18T00:51:56.730Z,98815.00
2022-12-18T00:52:06.727Z,98817.00
2022-12-18T00:52:16.761Z,98817.00
2022-12-18T00:52:26.747Z,98819.00
2022-12-18T00:52:36.749Z,98817.00
2022-12-18T00:52:46.763Z,98819.00
2022-12-18T00:52:56.769Z,98819.00
2022-12-18T00:53:06.773Z,98819.00
2022-12-18T00:53:16.896Z,98817.00
2022-12-18T00:53:27.152Z,98817.00
2022-12-18T00:53:37.581Z,98815.00
2022-12-18T00:53:47.349Z,98817.00
2022-12-18T00:53:57.601Z,98817.00
2022-12-18T00:54:07.601Z,98815.00
2022-12-18T00:54:17.622Z,98815.00
2022-12-18T00:54:27.617Z,98817.00
2022-12-18T00:54:37.641Z,98815.00
2022-12-18T00:54:47.648Z,98815.00
2022-12-18T00:55:01.794Z,98815.00
2022-12-18T00:55:07.648Z,98815.00
2022-12-18T00:55:17.767Z,98815.00
2022-12-18T00:55:27.779Z,98813.00
2022-12-18T00:55:37.920Z,98813.00
2022-12-18T00:55:47.931Z,98812.00
2022-12-18T00:55:57.944Z,98808.00
2022-12-18T00:56:07.954Z,98810.00
2022-12-18T00:56:17.958Z,98812.00
2022-12-18T00:56:28.218Z,98810.00
2022-12-18T00:56:45.727Z,98806.00
2022-12-18T00:56:49.652Z,98808.00
2022-12-18T00:56:58.257Z,98810.00
2022-12-18T00:57:08.253Z,98808.00
2022-12-18T00:57:18.376Z,98808.00
2022-12-18T00:57:28.372Z,98808.00
2022-12-18T00:57:38.505Z,98806.00
2022-12-18T00:57:48.580Z,98806.00
2022-12-18T00:57:58.706Z,98804.00
2022-12-18T00:58:08.698Z,98806.00
2022-12-18T00:58:18.824Z,98806.00
2022-12-18T00:58:28.823Z,98804.00
2022-12-18T00:58:38.947Z,98804.00
2022-12-18T00:58:49.072Z,98804.00
2022-12-18T00:58:59.082Z,98802.00
2022-12-18T00:59:09.093Z,98804.00
2022-12-18T00:59:19.110Z,98806.00
2022-12-18T00:59:29.111Z,98806.00
2022-12-18T00:59:39.122Z,98804.00
2022-12-18T00:59:49.129Z,98806.00
2022-12-18T00:59:59.144Z,98806.00
2022-12-18T01:00:09.142Z,98806.00
2022-12-18T01:00:19.149Z,98806.00
2022-12-18T01:00:29.151Z,98806.00
2022-12-18T01:00:39.392Z,98806.00
2022-12-18T01:00:49.348Z,98810.00
2022-12-18T01:00:59.384Z,98812.00
2022-12-18T01:01:09.485Z,98810.00
2022-12-18T01:01:19.654Z,98810.00
2022-12-18T01:01:29.721Z,98812.00
2022-12-18T01:01:39.961Z,98810.00
2022-12-18T01:01:50.022Z,98808.00
2022-12-18T01:02:00.040Z,98813.00
2022-12-18T01:02:10.439Z,98810.00
2022-12-18T01:02:20.427Z,98812.00
2022-12-18T01:02:30.610Z,98813.00
2022-12-18T01:02:40.867Z,98819.00
2022-12-18T01:02:50.951Z,98815.00
2022-12-18T01:03:00.875Z,98815.00
2022-12-18T01:03:11.218Z,98815.00
2022-12-18T01:03:21.222Z,98821.00
2022-12-18T01:03:31.224Z,98819.00
2022-12-18T01:03:41.572Z,98819.00
2022-12-18T01:03:51.452Z,98821.00
2022-12-18T01:04:01.456Z,98819.00
2022-12-18T01:04:11.460Z,98821.00
2022-12-18T01:04:21.837Z,98819.00
2022-12-18T01:04:31.844Z,98821.00
2022-12-18T01:04:41.840Z,98819.00
2022-12-18T01:04:51.846Z,98823.00
2022-12-18T01:05:01.851Z,98823.00
2022-12-18T01:05:11.857Z,98817.00
2022-12-18T01:05:21.853Z,98821.00
2022-12-18T01:05:31.869Z,98823.00
2022-12-18T01:05:41.875Z,98825.00
2022-12-18T01:05:51.892Z,98821.00
2022-12-18T01:06:01.917Z,98821.00
2022-12-18T01:06:11.888Z,98823.00
2022-12-18T01:06:22.015Z,98823.00
2022-12-18T01:06:32.022Z,98823.00
2022-12-18T01:06:42.052Z,98823.00
2022-12-18T01:06:52.077Z,98825.00
2022-12-18T01:07:02.099Z,98821.00
2022-12-18T01:07:12.100Z,98825.00
2022-12-18T01:07:22.119Z,98823.00
2022-12-18T01:07:32.120Z,98825.00
2022-12-18T01:07:42.241Z,98825.00
2022-12-18T01:07:52.248Z,98823.00
2022-12-18T01:08:02.254Z,98823.00
2022-12-18T01:08:12.258Z,98821.00
2022-12-18T01:08:22.271Z,98823.00
2022-12-18T01:08:32.377Z,98823.00
2022-12-18T01:08:42.500Z,98825.00
2022-12-18T01:08:52.502Z,98825.00
2022-12-18T01:09:02.513Z,98825.00
2022-12-18T01:09:12.521Z,98823.00
2022-12-18T01:09:22.637Z,98825.00
2022-12-18T01:09:32.775Z,98825.00
2022-12-18T01:09:42.778Z,98825.00
2022-12-18T01:09:52.803Z,98825.00
2022-12-18T01:10:02.800Z,98825.00
2022-12-18T01:10:12.812Z,98825.00
2022-12-18T01:10:22.807Z,98827.00
2022-12-18T01:10:32.808Z,98825.00
2022-12-18T01:10:42.932Z,98827.00
2022-12-18T01:10:52.933Z,98831.00
2022-12-18T01:11:03.053Z,98827.00
2022-12-18T01:11:13.184Z,98831.00
2022-12-18T01:11:23.306Z,98829.00
2022-12-18T01:11:33.321Z,98831.00
2022-12-18T01:11:43.597Z,98831.00
2022-12-18T01:11:53.598Z,98833.00
2022-12-18T01:12:03.612Z,98833.00
2022-12-18T01:12:13.611Z,98833.00
2022-12-18T01:12:23.739Z,98829.00
2022-12-18T01:12:33.740Z,98833.00
2022-12-18T01:12:43.872Z,98833.00
2022-12-18T01:12:53.870Z,98835.00
2022-12-18T01:13:03.870Z,98831.00
2022-12-18T01:13:13.874Z,98833.00
2022-12-18T01:13:23.998Z,98833.00
2022-12-18T01:13:34.001Z,98831.00
2022-12-18T01:13:44.123Z,98827.00
2022-12-18T01:13:54.395Z,98829.00
2022-12-18T01:14:04.404Z,98831.00
2022-12-18T01:14:14.415Z,98833.00
2022-12-18T01:14:24.412Z,98831.00
2022-12-18T01:14:34.441Z,98833.00
2022-12-18T01:14:44.444Z,98829.00
2022-12-18T01:14:54.454Z,98829.00
2022-12-18T01:15:04.470Z,98829.00
2022-12-18T01:15:14.487Z,98829.00
2022-12-18T01:15:24.484Z,98827.00
2022-12-18T01:15:34.478Z,98829.00
2022-12-18T01:15:44.508Z,98831.00
2022-12-18T01:15:54.521Z,98829.00
2022-12-18T01:16:04.595Z,98827.00
2022-12-18T01:16:14.701Z,98827.00
2022-12-18T01:16:24.749Z,98827.00
2022-12-18T01:16:34.854Z,98827.00
2022-12-18T01:16:45.088Z,98829.00
2022-12-18T01:16:55.188Z,98825.00
2022-12-18T01:17:05.214Z,98823.00
2022-12-18T01:17:15.466Z,98823.00
2022-12-18T01:17:25.474Z,98825.00
2022-12-18T01:17:35.476Z,98827.00
2022-12-18T01:17:45.486Z,98827.00
2022-12-18T01:17:55.506Z,98825.00
2022-12-18T01:18:05.514Z,98827.00
2022-12-18T01:18:15.520Z,98831.00
2022-12-18T01:18:25.534Z,98831.00
2022-12-18T01:18:35.537Z,98831.00
2022-12-18T01:18:45.551Z,98831.00
2022-12-18T01:18:55.567Z,98827.00
2022-12-18T01:19:05.575Z,98829.00
2022-12-18T01:19:15.574Z,98827.00
2022-12-18T01:19:25.602Z,98829.00
2022-12-18T01:19:35.606Z,98829.00
2022-12-18T01:19:45.607Z,98833.00
2022-12-18T01:19:55.608Z,98831.00
2022-12-18T01:20:05.633Z,98831.00
2022-12-18T01:20:15.644Z,98833.00
2022-12-18T01:20:25.646Z,98831.00
2022-12-18T01:20:35.661Z,98833.00
2022-12-18T01:20:45.670Z,98835.00
2022-12-18T01:20:55.683Z,98833.00
2022-12-18T01:21:05.708Z,98835.00
2022-12-18T01:21:15.698Z,98835.00
2022-12-18T01:21:25.704Z,98837.00
2022-12-18T01:21:35.721Z,98833.00
2022-12-18T01:21:45.723Z,98833.00
2022-12-18T01:21:55.740Z,98833.00
2022-12-18T01:22:05.741Z,98835.00
2022-12-18T01:22:15.760Z,98835.00
2022-12-18T01:22:25.762Z,98837.00
2022-12-18T01:22:35.779Z,98837.00
2022-12-18T01:22:45.781Z,98835.00
2022-12-18T01:22:55.801Z,98837.00
2022-12-18T01:23:05.804Z,98839.00
2022-12-18T01:23:15.806Z,98837.00
2022-12-18T01:23:25.824Z,98835.00
2022-12-18T01:23:36.153Z,98837.00
2022-12-18T01:23:46.077Z,98837.00
2022-12-18T01:23:56.085Z,98839.00
2022-12-18T01:24:06.103Z,98841.00
2022-12-18T01:24:16.089Z,98839.00
2022-12-18T01:24:26.095Z,98841.00
2022-12-18T01:24:36.225Z,98841.00
2022-12-18T01:24:46.235Z,98839.00
2022-12-18T01:24:56.247Z,98843.00
2022-12-18T01:25:06.261Z,98843.00
2022-12-18T01:25:16.264Z,98843.00
2022-12-18T01:25:26.529Z,98845.00
2022-12-18T01:25:36.527Z,98843.00
2022-12-18T01:25:46.528Z,98843.00
2022-12-18T01:25:56.906Z,98845.00
2022-12-18T01:26:06.914Z,98843.00
2022-12-18T01:26:16.939Z,98843.00
2022-12-18T01:26:27.284Z,98845.00
2022-12-18T01:26:37.417Z,98847.00
2022-12-18T01:26:47.429Z,98843.00
2022-12-18T01:26:57.691Z,98845.00
2022-12-18T01:27:07.701Z,98849.00
2022-12-18T01:27:17.698Z,98845.00
2022-12-18T01:27:27.700Z,98845.00
2022-12-18T01:27:37.832Z,98847.00
2022-12-18T01:27:47.829Z,98847.00
2022-12-18T01:27:57.950Z,98847.00
2022-12-18T01:28:07.957Z,98849.00
2022-12-18T01:28:18.075Z,98849.00
2022-12-18T01:28:28.079Z,98851.00
2022-12-18T01:28:38.200Z,98849.00
2022-12-18T01:28:48.263Z,98853.00
2022-12-18T01:28:58.256Z,98853.00
2022-12-18T01:29:08.513Z,98845.00
2022-12-18T01:29:18.518Z,98845.00
2022-12-18T01:29:28.524Z,98845.00
2022-12-18T01:29:38.907Z,98849.00
2022-12-18T01:29:48.913Z,98849.00
2022-12-18T01:29:58.916Z,98845.00
2022-12-18T01:30:08.920Z,98847.00
2022-12-18T01:30:18.946Z,98849.00
2022-12-18T01:30:28.946Z,98851.00
2022-12-18T01:30:38.958Z,98849.00
2022-12-18T01:30:48.962Z,98849.00
2022-12-18T01:30:58.975Z,98849.00
2022-12-18T01:31:08.981Z,98849.00
2022-12-18T01:31:19.070Z,98851.00
2022-12-18T01:31:29.220Z,98849.00
2022-12-18T01:31:39.180Z,98847.00
2022-12-18T01:31:49.257Z,98849.00
2022-12-18T01:31:59.401Z,98851.00
2022-12-18T01:32:09.387Z,98851.00
2022-12-18T01:32:19.409Z,98851.00
2022-12-18T01:32:29.679Z,98847.00
2022-12-18T01:32:39.680Z,98847.00
2022-12-18T01:32:49.678Z,98849.00
2022-12-18T01:32:59.700Z,98847.00
2022-12-18T01:33:09.703Z,98849.00
2022-12-18T01:33:19.707Z,98851.00
2022-12-18T01:33:29.723Z,98851.00
2022-12-18T01:33:40.046Z,98849.00
2022-12-18T01:33:49.770Z,98847.00
2022-12-18T01:33:59.779Z,98849.00
2022-12-18T01:34:09.767Z,98851.00
2022-12-18T01:34:19.776Z,98849.00
2022-12-18T01:34:29.787Z,98853.00
2022-12-18T01:34:39.790Z,98849.00
2022-12-18T01:34:49.795Z,98851.00
2022-12-18T01:34:59.814Z,98849.00
2022-12-18T01:35:09.827Z,98853.00
2022-12-18T01:35:19.836Z,98851.00
2022-12-18T01:35:29.850Z,98853.00
2022-12-18T01:35:39.851Z,98851.00
2022-12-18T01:35:49.849Z,98851.00
2022-12-18T01:35:59.978Z,98851.00
2022-12-18T01:36:09.981Z,98853.00
2022-12-18T01:36:19.982Z,98853.00
2022-12-18T01:36:30.260Z,98855.00
2022-12-18T01:36:40.279Z,98851.00
2022-12-18T01:36:50.282Z,98855.00
2022-12-18T01:37:00.659Z,98859.00
2022-12-18T01:37:10.669Z,98855.00
2022-12-18T01:37:20.679Z,98857.00
2022-12-18T01:37:30.690Z,98859.00
2022-12-18T01:37:40.697Z,98857.00
2022-12-18T01:37:50.712Z,98859.00
2022-12-18T01:38:00.716Z,98859.00
2022-12-18T01:38:10.729Z,98859.00
2022-12-18T01:38:20.837Z,98859.00
2022-12-18T01:38:30.847Z,98860.00
2022-12-18T01:38:41.105Z,98859.00
2022-12-18T01:38:51.116Z,98859.00
2022-12-18T01:39:01.110Z,98859.00
2022-12-18T01:39:11.107Z,98862.00
2022-12-18T01:39:21.117Z,98860.00
2022-12-18T01:39:31.131Z,98862.00
2022-12-18T01:39:41.133Z,98860.00
2022-12-18T01:39:51.135Z,98860.00
2022-12-18T01:40:01.137Z,98862.00
2022-12-18T01:40:11.147Z,98864.00
2022-12-18T01:40:21.526Z,98864.00
2022-12-18T01:40:31.526Z,98859.00
2022-12-18T01:40:41.532Z,98862.00
2022-12-18T01:40:51.537Z,98855.00
2022-12-18T01:41:01.541Z,98859.00
2022-12-18T01:41:11.536Z,98859.00
2022-12-18T01:41:21.656Z,98859.00
2022-12-18T01:41:31.670Z,98859.00
2022-12-18T01:41:41.670Z,98859.00
2022-12-18T01:41:51.664Z,98859.00
2022-12-18T01:42:01.927Z,98859.00
2022-12-18T01:42:11.935Z,98859.00
2022-12-18T01:42:21.940Z,98859.00
2022-12-18T01:42:31.940Z,98859.00
2022-12-18T01:42:41.957Z,98859.00
2022-12-18T01:42:51.952Z,98857.00
2022-12-18T01:43:02.071Z,98862.00
2022-12-18T01:43:12.084Z,98860.00
2022-12-18T01:43:22.085Z,98859.00
2022-12-18T01:43:32.090Z,98859.00
2022-12-18T01:43:42.355Z,98859.00
2022-12-18T01:43:52.363Z,98860.00
2022-12-18T01:44:02.363Z,98862.00
2022-12-18T01:44:12.359Z,98860.00
2022-12-18T01:44:22.368Z,98862.00
2022-12-18T01:44:32.369Z,98862.00
2022-12-18T01:44:42.385Z,98864.00
2022-12-18T01:44:52.399Z,98862.00
2022-12-18T01:45:02.410Z,98866.00
2022-12-18T01:45:12.409Z,98866.00
2022-12-18T01:45:22.424Z,98866.00
2022-12-18T01:45:32.472Z,98866.00
2022-12-18T01:45:42.599Z,98868.00
2022-12-18T01:45:52.565Z,98868.00
2022-12-18T01:46:02.597Z,98870.00
2022-12-18T01:46:12.726Z,98870.00
2022-12-18T01:46:22.647Z,98868.00
2022-12-18T01:46:32.652Z,98870.00
2022-12-18T01:46:42.642Z,98866.00
2022-12-18T01:46:52.669Z,98870.00
2022-12-18T01:47:02.671Z,98870.00
2022-12-18T01:47:12.676Z,98870.00
2022-12-18T01:47:22.798Z,98872.00
2022-12-18T01:47:32.799Z,98872.00
2022-12-18T01:47:43.050Z,98870.00
2022-12-18T01:47:53.063Z,98870.00
2022-12-18T01:48:03.183Z,98872.00
2022-12-18T01:48:13.450Z,98872.00
2022-12-18T01:48:23.571Z,98872.00
2022-12-18T01:48:33.593Z,98870.00
2022-12-18T01:48:43.876Z,98872.00
2022-12-18T01:48:53.861Z,98874.00
2022-12-18T01:49:03.871Z,98870.00
2022-12-18T01:49:13.920Z,98870.00
2022-12-18T01:49:24.047Z,98870.00
2022-12-18T01:49:34.051Z,98872.00
2022-12-18T01:49:44.057Z,98874.00
2022-12-18T01:49:54.091Z,98876.00
2022-12-18T01:50:04.102Z,98870.00
2022-12-18T01:50:14.105Z,98872.00
2022-12-18T01:50:24.395Z,98870.00
2022-12-18T01:50:34.496Z,98872.00
2022-12-18T01:50:44.656Z,98874.00
2022-12-18T01:50:54.785Z,98874.00
2022-12-18T01:51:04.790Z,98874.00
2022-12-18T01:51:14.801Z,98874.00
2022-12-18T01:51:24.810Z,98874.00
2022-12-18T01:51:34.822Z,98874.00
2022-12-18T01:51:44.831Z,98876.00
2022-12-18T01:51:54.839Z,98876.00
2022-12-18T01:52:04.856Z,98870.00
2022-12-18T01:52:14.860Z,98874.00
2022-12-18T01:52:24.869Z,98872.00
2022-12-18T01:52:34.879Z,98870.00
2022-12-18T01:52:44.904Z,98870.00
2022-12-18T01:52:54.900Z,98872.00
2022-12-18T01:53:04.900Z,98872.00
2022-12-18T01:53:14.928Z,98870.00
2022-12-18T01:53:24.919Z,98870.00
2022-12-18T01:53:35.157Z,98870.00
2022-12-18T01:53:44.997Z,98868.00
2022-12-18T01:53:55.002Z,98868.00
2022-12-18T01:54:05.121Z,98868.00
2022-12-18T01:54:15.125Z,98872.00
2022-12-18T01:54:25.131Z,98872.00
2022-12-18T01:54:35.139Z,98868.00
2022-12-18T01:54:45.144Z,98866.00
2022-12-18T01:54:55.397Z,98866.00
2022-12-18T01:55:05.528Z,98868.00
2022-12-18T01:55:15.545Z,98870.00
2022-12-18T01:55:25.808Z,98868.00
2022-12-18T01:55:35.821Z,98868.00
2022-12-18T01:55:45.831Z,98868.00
2022-12-18T01:55:55.841Z,98868.00
2022-12-18T01:56:05.862Z,98866.00
2022-12-18T01:56:15.860Z,98870.00
2022-12-18T01:56:25.875Z,98866.00
2022-12-18T01:56:35.888Z,98866.00
2022-12-18T01:56:45.897Z,98864.00
2022-12-18T01:56:55.907Z,98868.00
2022-12-18T01:57:05.906Z,98864.00
2022-12-18T01:57:15.944Z,98866.00
2022-12-18T01:57:25.936Z,98868.00
2022-12-18T01:57:35.935Z,98868.00
2022-12-18T01:57:46.065Z,98866.00
2022-12-18T01:57:56.065Z,98866.00
2022-12-18T01:58:06.068Z,98866.00
2022-12-18T01:58:16.342Z,98866.00
2022-12-18T01:58:26.341Z,98868.00